• Join FlightAware (Why Join?)
  • Login
  • US Flag 
12:52PM EDT


 

Airport Tracker/Info


-or-


 

Live Flight TrackerFlight Track Log ✈ SWA1881 ✈ 29-Sep-2013 ✈ KMHT - KBWI

Flight Track Log - Related Links

Times and Time Zones

All times are in EDT time to prevent confusion due to time zone crossing. See the SWA1881 flight status page for this flight to view local times or setup timezone preferences in your user account.

Time Position Orientation Groundspeed Altitude Reporting Facility
EDT Latitude Longitude Course Direction KTS MPH feet Rate Location/Type
03:39PM 42.9500 -71.4167 18° North 162 186 1,300  Level KA90
03:39PM 42.9756 -71.4056 18° North 186 214 2,100 2,040 Climbing Boston Center
03:40PM 43.0381 -71.3636 26° Northeast 255 293 5,100 3,060 Climbing Boston Center
03:41PM 43.0525 -71.2403 81° East 275 316 9,100 3,480 Climbing Boston Center
03:42PM 43.0594 -71.1242 85° East 283 326 12,300 3,000 Climbing Boston Center
03:43PM 43.0803 -71.0158 75° East 293 337 15,300 2,220 Climbing Boston Center
03:44PM 43.0172 -70.9519 143° Southeast 324 373 16,900 1,740 Climbing Boston Center
03:46PM 42.9156 -70.9547 181° South 339 390 19,000 1,860 Climbing Boston Center
03:47PM 42.8261 -70.9603 183° South 349 402 20,800 1,440 Climbing Boston Center
03:48PM 42.7244 -71.0078 199° South 386 444 22,000 1,560 Climbing Boston Center
03:49PM 42.6208 -71.0589 200° South 396 456 24,100 1,980 Climbing Boston Center
03:50PM 42.4944 -71.1203 200° South 402 463 26,100 1,560 Climbing Boston Center
03:51PM 42.4033 -71.2069 215° Southwest 429 494 27,400 1,200 Climbing Boston Center
03:52PM 42.3586 -71.3553 248° West 430 495 28,600 1,500 Climbing Boston Center
03:53PM 42.2956 -71.4889 237° Southwest 432 497 30,500 1,680 Climbing Boston Center
03:54PM 42.2336 -71.6214 238° Southwest 423 487 32,100 1,380 Climbing Boston Center
03:55PM 42.1736 -71.7508 238° Southwest 412 474 33,400 900 Climbing Boston Center
03:56PM 42.1128 -71.8800 238° Southwest 409 471 34,000 -120 Climbing Boston Center
03:57PM 42.0358 -72.0383 237° Southwest 418 481 33,200 -960 Descending Boston Center
03:58PM 41.9703 -72.1744 237° Southwest 428 493 32,100 -1,020 Descending Boston Center
03:59PM 41.9058 -72.3097 237° Southwest 431 496 30,900 -960 Descending Boston Center
04:00PM 41.8247 -72.4744 237° Southwest 438 504 30,000 -480 Descending Boston Center
04:01PM 41.7572 -72.6150 237° Southwest 443 510 30,000  Level Boston Center
04:02PM 41.6908 -72.7519 237° Southwest 440 506 30,000  Level Boston Center
04:03PM 41.6236 -72.8903 237° Southwest 441 507 30,000  Level Boston Center
04:04PM 41.5417 -73.0544 236° Southwest 440 506 30,000  Level Boston Center
04:05PM 41.4792 -73.1831 237° Southwest 434 499 30,000  Level Boston Center
04:06PM 41.4136 -73.3156 237° Southwest 431 496 30,000  Level Boston Center
04:07PM 41.3469 -73.4472 236° Southwest 432 497 30,000  Level Boston Center
04:08PM 41.2808 -73.5783 236° Southwest 430 495 30,000  Level Boston Center
04:09PM 41.1933 -73.7275 232° Southwest 427 491 30,000  Level Boston Center
04:10PM 41.1200 -73.8506 232° Southwest 428 493 30,000  Level Boston Center
04:11PM 41.0472 -73.9717 231° Southwest 423 487 30,000  Level Boston Center
04:13PM 40.9753 -74.0939 232° Southwest 423 487 30,000  Level Boston Center
04:14PM 40.9006 -74.2178 231° Southwest 430 495 30,000 -540 Level Boston Center
04:15PM 40.8256 -74.3403 231° Southwest 432 497 29,000 -960 Descending Boston Center
04:16PM 40.7256 -74.5061 232° Southwest 442 509 28,000 -480 Descending New York Center
04:17PM 40.6486 -74.6306 231° Southwest 442 509 28,000  Level New York Center
04:18PM 40.5653 -74.7542 228° Southwest 448 516 28,000 -540 Level New York Center
04:19PM 40.4822 -74.8694 227° Southwest 448 516 27,000 -1,800 Descending New York Center
04:20PM 40.4031 -74.9872 229° Southwest 448 516 24,500 -2,400 Descending New York Center
04:21PM 40.3258 -75.0997 228° Southwest 437 503 22,200 -2,400 Descending New York Center
04:22PM 40.2467 -75.2144 228° Southwest 431 496 19,700 -2,100 Descending New York Center
04:23PM 40.1672 -75.3261 227° Southwest 426 490 18,000 -900 Descending New York Center
04:24PM 40.0922 -75.4325 227° Southwest 420 483 18,000  Level New York Center
04:25PM 40.0175 -75.5331 226° Southwest 409 471 18,000  Level New York Center
04:26PM 39.9422 -75.6392 227° Southwest 404 465 18,000 -60 Level New York Center
04:27PM 39.8817 -75.7431 233° Southwest 404 465 17,900 -1,200 Descending New York Center
04:28PM 39.8156 -75.8708 236° Southwest 404 465 15,600 -1,980 Descending New York Center
04:30PM 39.7000 -76.1000 237° Southwest 351 404 12,100 -1,680 Descending Potomac TRACON
04:31PM 39.6500 -76.1833 232° Southwest 357 411 10,900 -1,260 Descending Potomac TRACON
04:32PM 39.6000 -76.2833 237° Southwest 323 372 9,800 -1,080 Descending Potomac TRACON
04:33PM 39.5333 -76.3500 218° Southwest 285 328 8,800 -1,380 Descending Potomac TRACON
04:34PM 39.4667 -76.4000 210° Southwest 277 319 7,100 -1,500 Descending Potomac TRACON
04:35PM 39.4000 -76.4667 218° Southwest 264 304 5,900 -1,440 Descending Potomac TRACON
04:36PM 39.3333 -76.4667 180° South 262 302 4,300 -1,440 Descending Potomac TRACON
04:37PM 39.2667 -76.4667 180° South 259 298 3,200 -840 Descending Potomac TRACON
04:38PM 39.2000 -76.4833 191° South 256 295 2,800 -600 Descending Potomac TRACON
04:39PM 39.1500 -76.5500 226° Southwest 244 281 2,000 -660 Descending Potomac TRACON
04:40PM 39.1167 -76.6000 229° Southwest 216 249 1,500 -720 Descending Potomac TRACON
04:41PM 39.1500 -76.6500 311° West 144 166 600 -900 Descending Potomac TRACON